sensor_id;sensor_type;location;lat;lon;timestamp;P1;durP1;ratioP1;P2;durP2;ratioP2
40729;SDS011;26418;50.070;8.436;2024-03-06T00:01:58;9.50;;;4.28;;
40729;SDS011;26418;50.070;8.436;2024-03-06T00:04:24;8.10;;;4.38;;
40729;SDS011;26418;50.070;8.436;2024-03-06T00:06:49;9.57;;;3.92;;
40729;SDS011;26418;50.070;8.436;2024-03-06T00:09:17;8.10;;;4.25;;
40729;SDS011;26418;50.070;8.436;2024-03-06T00:11:43;6.43;;;4.07;;
40729;SDS011;26418;50.070;8.436;2024-03-06T00:14:12;5.07;;;3.47;;
40729;SDS011;26418;50.070;8.436;2024-03-06T00:16:38;8.35;;;3.28;;
40729;SDS011;26418;50.070;8.436;2024-03-06T00:19:03;5.22;;;2.70;;
40729;SDS011;26418;50.070;8.436;2024-03-06T00:21:29;9.73;;;3.67;;
40729;SDS011;26418;50.070;8.436;2024-03-06T00:23:55;6.25;;;3.42;;
40729;SDS011;26418;50.070;8.436;2024-03-06T00:26:21;4.75;;;3.35;;
40729;SDS011;26418;50.070;8.436;2024-03-06T00:28:49;6.63;;;4.05;;
40729;SDS011;26418;50.070;8.436;2024-03-06T00:31:15;6.78;;;3.38;;
40729;SDS011;26418;50.070;8.436;2024-03-06T00:33:40;8.45;;;4.43;;
40729;SDS011;26418;50.070;8.436;2024-03-06T00:36:06;7.97;;;5.10;;
40729;SDS011;26418;50.070;8.436;2024-03-06T00:38:32;8.23;;;4.20;;
40729;SDS011;26418;50.070;8.436;2024-03-06T00:40:58;7.00;;;4.18;;
40729;SDS011;26418;50.070;8.436;2024-03-06T00:43:24;6.45;;;4.75;;
40729;SDS011;26418;50.070;8.436;2024-03-06T00:45:49;7.90;;;3.88;;
40729;SDS011;26418;50.070;8.436;2024-03-06T00:48:15;4.68;;;3.50;;
40729;SDS011;26418;50.070;8.436;2024-03-06T00:50:43;6.20;;;3.38;;
40729;SDS011;26418;50.070;8.436;2024-03-06T00:53:09;6.32;;;3.35;;
40729;SDS011;26418;50.070;8.436;2024-03-06T00:55:34;5.88;;;3.42;;
40729;SDS011;26418;50.070;8.436;2024-03-06T00:58:00;5.30;;;3.08;;
40729;SDS011;26418;50.070;8.436;2024-03-06T01:00:26;6.10;;;2.88;;
40729;SDS011;26418;50.070;8.436;2024-03-06T01:02:52;3.65;;;2.50;;
40729;SDS011;26418;50.070;8.436;2024-03-06T01:05:23;5.22;;;3.13;;
40729;SDS011;26418;50.070;8.436;2024-03-06T01:07:49;5.78;;;3.15;;
40729;SDS011;26418;50.070;8.436;2024-03-06T01:10:15;6.40;;;2.80;;
40729;SDS011;26418;50.070;8.436;2024-03-06T01:12:40;4.95;;;2.83;;
40729;SDS011;26418;50.070;8.436;2024-03-06T01:15:10;7.10;;;3.00;;
40729;SDS011;26418;50.070;8.436;2024-03-06T01:17:39;5.20;;;3.03;;
40729;SDS011;26418;50.070;8.436;2024-03-06T01:20:05;4.97;;;3.22;;
40729;SDS011;26418;50.070;8.436;2024-03-06T01:22:32;6.40;;;3.35;;
40729;SDS011;26418;50.070;8.436;2024-03-06T01:25:01;4.88;;;3.05;;
40729;SDS011;26418;50.070;8.436;2024-03-06T01:27:27;5.90;;;3.10;;
40729;SDS011;26418;50.070;8.436;2024-03-06T01:29:53;7.95;;;2.95;;
40729;SDS011;26418;50.070;8.436;2024-03-06T01:32:19;6.10;;;2.97;;
40729;SDS011;26418;50.070;8.436;2024-03-06T01:34:47;5.63;;;2.92;;
40729;SDS011;26418;50.070;8.436;2024-03-06T01:37:13;5.28;;;3.05;;
40729;SDS011;26418;50.070;8.436;2024-03-06T01:39:44;5.03;;;2.83;;
40729;SDS011;26418;50.070;8.436;2024-03-06T01:42:17;5.35;;;2.58;;
40729;SDS011;26418;50.070;8.436;2024-03-06T01:44:43;5.30;;;2.88;;
40729;SDS011;26418;50.070;8.436;2024-03-06T01:47:14;6.45;;;2.80;;
40729;SDS011;26418;50.070;8.436;2024-03-06T01:49:40;5.82;;;2.70;;
40729;SDS011;26418;50.070;8.436;2024-03-06T01:52:07;5.32;;;2.72;;
40729;SDS011;26418;50.070;8.436;2024-03-06T01:54:34;7.18;;;3.60;;
40729;SDS011;26418;50.070;8.436;2024-03-06T01:57:03;6.95;;;2.85;;
40729;SDS011;26418;50.070;8.436;2024-03-06T01:59:40;5.55;;;3.60;;
40729;SDS011;26418;50.070;8.436;2024-03-06T02:02:07;6.15;;;3.35;;
40729;SDS011;26418;50.070;8.436;2024-03-06T02:04:36;7.63;;;3.63;;
40729;SDS011;26418;50.070;8.436;2024-03-06T02:07:11;5.13;;;3.03;;
40729;SDS011;26418;50.070;8.436;2024-03-06T02:09:39;4.68;;;2.95;;
40729;SDS011;26418;50.070;8.436;2024-03-06T02:12:05;4.82;;;2.65;;
40729;SDS011;26418;50.070;8.436;2024-03-06T02:14:37;4.85;;;2.97;;
40729;SDS011;26418;50.070;8.436;2024-03-06T02:17:06;6.30;;;3.00;;
40729;SDS011;26418;50.070;8.436;2024-03-06T02:19:50;5.43;;;2.90;;
40729;SDS011;26418;50.070;8.436;2024-03-06T02:22:16;5.47;;;2.72;;
40729;SDS011;26418;50.070;8.436;2024-03-06T02:24:48;5.90;;;2.53;;
40729;SDS011;26418;50.070;8.436;2024-03-06T02:27:14;4.82;;;2.55;;
40729;SDS011;26418;50.070;8.436;2024-03-06T02:29:41;3.30;;;2.50;;
40729;SDS011;26418;50.070;8.436;2024-03-06T02:32:07;3.40;;;2.13;;
40729;SDS011;26418;50.070;8.436;2024-03-06T02:34:39;4.28;;;2.15;;
40729;SDS011;26418;50.070;8.436;2024-03-06T02:37:05;3.70;;;2.10;;
40729;SDS011;26418;50.070;8.436;2024-03-06T02:39:31;3.70;;;2.33;;
40729;SDS011;26418;50.070;8.436;2024-03-06T02:41:57;4.10;;;2.90;;
40729;SDS011;26418;50.070;8.436;2024-03-06T02:44:22;4.03;;;2.85;;
40729;SDS011;26418;50.070;8.436;2024-03-06T02:46:51;5.28;;;3.00;;
40729;SDS011;26418;50.070;8.436;2024-03-06T02:49:17;6.10;;;2.65;;
40729;SDS011;26418;50.070;8.436;2024-03-06T02:51:46;4.70;;;3.55;;
40729;SDS011;26418;50.070;8.436;2024-03-06T02:54:12;6.78;;;3.47;;
40729;SDS011;26418;50.070;8.436;2024-03-06T02:56:50;8.13;;;3.63;;
40729;SDS011;26418;50.070;8.436;2024-03-06T02:59:17;7.80;;;4.20;;
40729;SDS011;26418;50.070;8.436;2024-03-06T03:01:43;6.38;;;3.88;;
40729;SDS011;26418;50.070;8.436;2024-03-06T03:04:09;5.78;;;3.75;;
40729;SDS011;26418;50.070;8.436;2024-03-06T03:06:41;7.43;;;3.70;;
40729;SDS011;26418;50.070;8.436;2024-03-06T03:09:07;9.13;;;3.95;;
40729;SDS011;26418;50.070;8.436;2024-03-06T03:11:39;7.38;;;4.00;;
40729;SDS011;26418;50.070;8.436;2024-03-06T03:14:13;7.35;;;3.65;;
40729;SDS011;26418;50.070;8.436;2024-03-06T03:16:41;6.47;;;3.13;;
40729;SDS011;26418;50.070;8.436;2024-03-06T03:19:08;5.75;;;3.47;;
40729;SDS011;26418;50.070;8.436;2024-03-06T03:21:33;7.63;;;3.75;;
40729;SDS011;26418;50.070;8.436;2024-03-06T03:24:02;6.55;;;3.05;;
40729;SDS011;26418;50.070;8.436;2024-03-06T03:26:28;7.72;;;4.05;;
40729;SDS011;26418;50.070;8.436;2024-03-06T03:28:54;6.03;;;3.00;;
40729;SDS011;26418;50.070;8.436;2024-03-06T03:31:23;8.48;;;3.53;;
40729;SDS011;26418;50.070;8.436;2024-03-06T03:33:52;5.28;;;2.42;;
40729;SDS011;26418;50.070;8.436;2024-03-06T03:36:17;7.50;;;2.88;;
40729;SDS011;26418;50.070;8.436;2024-03-06T03:38:43;5.15;;;2.63;;
40729;SDS011;26418;50.070;8.436;2024-03-06T03:41:12;6.40;;;2.63;;
40729;SDS011;26418;50.070;8.436;2024-03-06T03:43:41;3.25;;;2.05;;
40729;SDS011;26418;50.070;8.436;2024-03-06T03:46:10;7.25;;;2.83;;
40729;SDS011;26418;50.070;8.436;2024-03-06T03:48:35;5.00;;;3.05;;
40729;SDS011;26418;50.070;8.436;2024-03-06T03:51:04;6.90;;;2.95;;
40729;SDS011;26418;50.070;8.436;2024-03-06T03:53:30;7.65;;;3.58;;
40729;SDS011;26418;50.070;8.436;2024-03-06T03:55:56;8.05;;;4.20;;
40729;SDS011;26418;50.070;8.436;2024-03-06T03:58:21;8.43;;;4.63;;
40729;SDS011;26418;50.070;8.436;2024-03-06T04:00:53;9.57;;;3.70;;
40729;SDS011;26418;50.070;8.436;2024-03-06T04:03:23;8.18;;;4.25;;
40729;SDS011;26418;50.070;8.436;2024-03-06T04:05:49;9.65;;;5.10;;
40729;SDS011;26418;50.070;8.436;2024-03-06T04:08:14;9.18;;;4.55;;
40729;SDS011;26418;50.070;8.436;2024-03-06T04:10:43;7.22;;;4.18;;
40729;SDS011;26418;50.070;8.436;2024-03-06T04:13:12;9.25;;;4.45;;
40729;SDS011;26418;50.070;8.436;2024-03-06T04:15:38;7.43;;;3.97;;
40729;SDS011;26418;50.070;8.436;2024-03-06T04:18:04;8.05;;;4.15;;
40729;SDS011;26418;50.070;8.436;2024-03-06T04:20:29;7.72;;;4.53;;
40729;SDS011;26418;50.070;8.436;2024-03-06T04:22:58;6.90;;;4.05;;
40729;SDS011;26418;50.070;8.436;2024-03-06T04:25:29;12.23;;;4.40;;
40729;SDS011;26418;50.070;8.436;2024-03-06T04:27:58;7.68;;;3.92;;
40729;SDS011;26418;50.070;8.436;2024-03-06T04:30:23;6.35;;;3.47;;
40729;SDS011;26418;50.070;8.436;2024-03-06T04:32:50;7.07;;;3.85;;
40729;SDS011;26418;50.070;8.436;2024-03-06T04:35:15;7.38;;;4.18;;
40729;SDS011;26418;50.070;8.436;2024-03-06T04:37:41;11.73;;;5.20;;
40729;SDS011;26418;50.070;8.436;2024-03-06T04:40:07;8.27;;;4.75;;
40729;SDS011;26418;50.070;8.436;2024-03-06T04:42:36;8.77;;;4.32;;
40729;SDS011;26418;50.070;8.436;2024-03-06T04:45:09;7.95;;;4.32;;
40729;SDS011;26418;50.070;8.436;2024-03-06T04:47:40;8.43;;;4.65;;
40729;SDS011;26418;50.070;8.436;2024-03-06T04:50:09;9.90;;;5.22;;
40729;SDS011;26418;50.070;8.436;2024-03-06T04:52:39;7.53;;;4.25;;
40729;SDS011;26418;50.070;8.436;2024-03-06T04:55:05;12.30;;;5.95;;
40729;SDS011;26418;50.070;8.436;2024-03-06T04:57:38;11.77;;;5.07;;
40729;SDS011;26418;50.070;8.436;2024-03-06T05:00:04;8.15;;;4.57;;
40729;SDS011;26418;50.070;8.436;2024-03-06T05:02:33;14.45;;;5.70;;
40729;SDS011;26418;50.070;8.436;2024-03-06T05:05:04;10.55;;;4.85;;
40729;SDS011;26418;50.070;8.436;2024-03-06T05:07:30;10.48;;;4.63;;
40729;SDS011;26418;50.070;8.436;2024-03-06T05:10:02;7.25;;;4.55;;
40729;SDS011;26418;50.070;8.436;2024-03-06T05:12:28;9.40;;;4.50;;
40729;SDS011;26418;50.070;8.436;2024-03-06T05:15:00;8.30;;;4.78;;
40729;SDS011;26418;50.070;8.436;2024-03-06T05:19:51;12.07;;;4.70;;
40729;SDS011;26418;50.070;8.436;2024-03-06T05:22:16;8.98;;;5.53;;
40729;SDS011;26418;50.070;8.436;2024-03-06T05:24:42;8.88;;;4.72;;
40729;SDS011;26418;50.070;8.436;2024-03-06T05:27:12;9.63;;;4.85;;
40729;SDS011;26418;50.070;8.436;2024-03-06T05:29:41;9.20;;;5.00;;
40729;SDS011;26418;50.070;8.436;2024-03-06T05:32:09;9.70;;;5.32;;
40729;SDS011;26418;50.070;8.436;2024-03-06T05:34:38;10.35;;;4.95;;
40729;SDS011;26418;50.070;8.436;2024-03-06T05:37:04;7.97;;;4.10;;
40729;SDS011;26418;50.070;8.436;2024-03-06T05:39:33;10.50;;;5.00;;
40729;SDS011;26418;50.070;8.436;2024-03-06T05:42:02;9.25;;;5.55;;
40729;SDS011;26418;50.070;8.436;2024-03-06T05:44:32;8.32;;;5.22;;
40729;SDS011;26418;50.070;8.436;2024-03-06T05:46:59;6.68;;;4.55;;
40729;SDS011;26418;50.070;8.436;2024-03-06T05:49:29;8.60;;;4.90;;
40729;SDS011;26418;50.070;8.436;2024-03-06T05:51:55;7.15;;;4.45;;
40729;SDS011;26418;50.070;8.436;2024-03-06T05:54:21;10.88;;;4.90;;
40729;SDS011;26418;50.070;8.436;2024-03-06T05:56:50;7.22;;;4.53;;
40729;SDS011;26418;50.070;8.436;2024-03-06T05:59:23;5.75;;;3.58;;
40729;SDS011;26418;50.070;8.436;2024-03-06T06:01:52;7.22;;;4.30;;
40729;SDS011;26418;50.070;8.436;2024-03-06T06:04:20;5.80;;;3.53;;
40729;SDS011;26418;50.070;8.436;2024-03-06T06:06:47;7.03;;;4.68;;
40729;SDS011;26418;50.070;8.436;2024-03-06T06:09:15;6.32;;;3.63;;
40729;SDS011;26418;50.070;8.436;2024-03-06T06:11:42;7.40;;;4.00;;
40729;SDS011;26418;50.070;8.436;2024-03-06T06:14:11;9.80;;;5.40;;
40729;SDS011;26418;50.070;8.436;2024-03-06T06:16:41;13.63;;;5.45;;
40729;SDS011;26418;50.070;8.436;2024-03-06T06:19:07;8.43;;;5.55;;
40729;SDS011;26418;50.070;8.436;2024-03-06T06:21:36;11.32;;;5.90;;
40729;SDS011;26418;50.070;8.436;2024-03-06T06:24:02;9.30;;;5.88;;
40729;SDS011;26418;50.070;8.436;2024-03-06T06:26:29;10.40;;;5.90;;
40729;SDS011;26418;50.070;8.436;2024-03-06T06:28:56;11.27;;;6.57;;
40729;SDS011;26418;50.070;8.436;2024-03-06T06:31:22;9.60;;;5.88;;
40729;SDS011;26418;50.070;8.436;2024-03-06T06:33:50;9.63;;;5.32;;
40729;SDS011;26418;50.070;8.436;2024-03-06T06:36:17;11.57;;;5.57;;
40729;SDS011;26418;50.070;8.436;2024-03-06T06:38:43;12.25;;;5.20;;
40729;SDS011;26418;50.070;8.436;2024-03-06T06:41:09;11.20;;;6.03;;
40729;SDS011;26418;50.070;8.436;2024-03-06T06:43:35;11.40;;;4.65;;
40729;SDS011;26418;50.070;8.436;2024-03-06T06:46:04;10.35;;;4.93;;
40729;SDS011;26418;50.070;8.436;2024-03-06T06:48:31;12.77;;;5.85;;
40729;SDS011;26418;50.070;8.436;2024-03-06T06:50:58;12.18;;;6.43;;
40729;SDS011;26418;50.070;8.436;2024-03-06T06:53:26;11.23;;;6.40;;
40729;SDS011;26418;50.070;8.436;2024-03-06T06:55:52;11.60;;;5.75;;
40729;SDS011;26418;50.070;8.436;2024-03-06T06:58:17;8.15;;;4.53;;
40729;SDS011;26418;50.070;8.436;2024-03-06T07:00:43;7.85;;;4.40;;
40729;SDS011;26418;50.070;8.436;2024-03-06T07:03:11;6.40;;;3.80;;
40729;SDS011;26418;50.070;8.436;2024-03-06T07:05:37;8.57;;;5.03;;
40729;SDS011;26418;50.070;8.436;2024-03-06T07:08:03;10.65;;;5.15;;
40729;SDS011;26418;50.070;8.436;2024-03-06T07:10:29;9.65;;;5.75;;
40729;SDS011;26418;50.070;8.436;2024-03-06T07:12:57;8.45;;;4.05;;
40729;SDS011;26418;50.070;8.436;2024-03-06T07:15:26;10.23;;;5.63;;
40729;SDS011;26418;50.070;8.436;2024-03-06T07:17:52;8.82;;;4.20;;
40729;SDS011;26418;50.070;8.436;2024-03-06T07:20:17;11.35;;;6.25;;
40729;SDS011;26418;50.070;8.436;2024-03-06T07:22:43;11.15;;;6.82;;
40729;SDS011;26418;50.070;8.436;2024-03-06T07:25:09;10.95;;;6.65;;
40729;SDS011;26418;50.070;8.436;2024-03-06T07:27:34;11.27;;;6.78;;
40729;SDS011;26418;50.070;8.436;2024-03-06T07:30:01;12.57;;;6.65;;
40729;SDS011;26418;50.070;8.436;2024-03-06T07:32:29;12.23;;;7.13;;
40729;SDS011;26418;50.070;8.436;2024-03-06T07:34:55;12.35;;;6.78;;
40729;SDS011;26418;50.070;8.436;2024-03-06T07:37:21;9.93;;;5.63;;
40729;SDS011;26418;50.070;8.436;2024-03-06T07:39:46;9.43;;;5.35;;
40729;SDS011;26418;50.070;8.436;2024-03-06T07:42:12;7.35;;;5.15;;
40729;SDS011;26418;50.070;8.436;2024-03-06T07:44:38;11.52;;;6.65;;
40729;SDS011;26418;50.070;8.436;2024-03-06T07:47:03;10.30;;;5.15;;
40729;SDS011;26418;50.070;8.436;2024-03-06T07:49:29;11.27;;;3.70;;
40729;SDS011;26418;50.070;8.436;2024-03-06T07:51:59;6.00;;;2.90;;
40729;SDS011;26418;50.070;8.436;2024-03-06T07:54:24;12.82;;;5.35;;
40729;SDS011;26418;50.070;8.436;2024-03-06T07:56:50;9.98;;;5.50;;
40729;SDS011;26418;50.070;8.436;2024-03-06T07:59:16;11.98;;;5.68;;
40729;SDS011;26418;50.070;8.436;2024-03-06T08:01:43;10.43;;;5.72;;
40729;SDS011;26418;50.070;8.436;2024-03-06T08:04:09;10.88;;;5.90;;
40729;SDS011;26418;50.070;8.436;2024-03-06T08:06:34;7.65;;;4.82;;
40729;SDS011;26418;50.070;8.436;2024-03-06T08:09:05;8.70;;;4.35;;
40729;SDS011;26418;50.070;8.436;2024-03-06T08:11:38;7.18;;;4.40;;
40729;SDS011;26418;50.070;8.436;2024-03-06T08:16:31;5.75;;;3.95;;
40729;SDS011;26418;50.070;8.436;2024-03-06T08:19:01;7.90;;;4.03;;
40729;SDS011;26418;50.070;8.436;2024-03-06T08:21:32;5.32;;;3.25;;
40729;SDS011;26418;50.070;8.436;2024-03-06T08:23:58;7.50;;;4.00;;
40729;SDS011;26418;50.070;8.436;2024-03-06T08:26:23;6.78;;;3.47;;
40729;SDS011;26418;50.070;8.436;2024-03-06T08:28:49;5.57;;;3.50;;
40729;SDS011;26418;50.070;8.436;2024-03-06T08:31:18;6.63;;;3.92;;
40729;SDS011;26418;50.070;8.436;2024-03-06T08:33:46;8.90;;;4.72;;
40729;SDS011;26418;50.070;8.436;2024-03-06T08:36:12;11.07;;;4.95;;
40729;SDS011;26418;50.070;8.436;2024-03-06T08:38:39;7.03;;;4.45;;
40729;SDS011;26418;50.070;8.436;2024-03-06T08:41:06;11.48;;;5.82;;
40729;SDS011;26418;50.070;8.436;2024-03-06T08:43:31;6.30;;;4.38;;
40729;SDS011;26418;50.070;8.436;2024-03-06T08:46:00;9.77;;;4.93;;
40729;SDS011;26418;50.070;8.436;2024-03-06T08:48:25;6.07;;;4.30;;
40729;SDS011;26418;50.070;8.436;2024-03-06T08:50:51;9.80;;;6.50;;
40729;SDS011;26418;50.070;8.436;2024-03-06T08:53:17;9.55;;;5.50;;
40729;SDS011;26418;50.070;8.436;2024-03-06T08:55:43;8.52;;;5.22;;
40729;SDS011;26418;50.070;8.436;2024-03-06T08:58:08;11.93;;;5.70;;
40729;SDS011;26418;50.070;8.436;2024-03-06T09:00:34;16.48;;;8.13;;
40729;SDS011;26418;50.070;8.436;2024-03-06T09:02:59;14.40;;;8.55;;
40729;SDS011;26418;50.070;8.436;2024-03-06T09:05:25;16.80;;;9.35;;
40729;SDS011;26418;50.070;8.436;2024-03-06T09:07:51;19.83;;;11.35;;
40729;SDS011;26418;50.070;8.436;2024-03-06T09:10:17;21.65;;;10.27;;
40729;SDS011;26418;50.070;8.436;2024-03-06T09:12:47;18.63;;;11.10;;
40729;SDS011;26418;50.070;8.436;2024-03-06T09:15:15;18.25;;;10.00;;
40729;SDS011;26418;50.070;8.436;2024-03-06T09:17:41;20.17;;;10.48;;
40729;SDS011;26418;50.070;8.436;2024-03-06T09:20:13;20.55;;;12.35;;
40729;SDS011;26418;50.070;8.436;2024-03-06T09:22:41;18.02;;;12.20;;
40729;SDS011;26418;50.070;8.436;2024-03-06T09:25:07;23.13;;;13.38;;
40729;SDS011;26418;50.070;8.436;2024-03-06T09:27:33;18.55;;;11.98;;
40729;SDS011;26418;50.070;8.436;2024-03-06T09:29:59;20.95;;;12.23;;
40729;SDS011;26418;50.070;8.436;2024-03-06T09:32:31;22.98;;;13.25;;
40729;SDS011;26418;50.070;8.436;2024-03-06T09:37:23;24.40;;;12.50;;
40729;SDS011;26418;50.070;8.436;2024-03-06T09:40:01;16.48;;;10.45;;
40729;SDS011;26418;50.070;8.436;2024-03-06T09:42:34;22.10;;;12.85;;
40729;SDS011;26418;50.070;8.436;2024-03-06T09:45:05;24.05;;;13.20;;
40729;SDS011;26418;50.070;8.436;2024-03-06T09:50:03;19.98;;;12.57;;
40729;SDS011;26418;50.070;8.436;2024-03-06T09:52:33;19.50;;;11.80;;
40729;SDS011;26418;50.070;8.436;2024-03-06T09:55:01;24.17;;;13.88;;
40729;SDS011;26418;50.070;8.436;2024-03-06T09:57:27;22.60;;;15.18;;
40729;SDS011;26418;50.070;8.436;2024-03-06T09:59:53;24.20;;;14.60;;
40729;SDS011;26418;50.070;8.436;2024-03-06T10:03:04;22.92;;;13.23;;
40729;SDS011;26418;50.070;8.436;2024-03-06T10:05:22;27.48;;;13.38;;
40729;SDS011;26418;50.070;8.436;2024-03-06T10:07:58;23.25;;;13.70;;
40729;SDS011;26418;50.070;8.436;2024-03-06T10:10:24;22.15;;;13.02;;
40729;SDS011;26418;50.070;8.436;2024-03-06T10:12:52;27.20;;;14.38;;
40729;SDS011;26418;50.070;8.436;2024-03-06T10:15:18;23.77;;;13.38;;
40729;SDS011;26418;50.070;8.436;2024-03-06T10:17:44;20.52;;;13.60;;
40729;SDS011;26418;50.070;8.436;2024-03-06T10:20:18;20.27;;;12.50;;
40729;SDS011;26418;50.070;8.436;2024-03-06T10:22:54;22.73;;;12.98;;
40729;SDS011;26418;50.070;8.436;2024-03-06T10:25:23;18.38;;;12.35;;
40729;SDS011;26418;50.070;8.436;2024-03-06T10:30:37;17.30;;;11.88;;
40729;SDS011;26418;50.070;8.436;2024-03-06T10:33:07;19.23;;;11.65;;
40729;SDS011;26418;50.070;8.436;2024-03-06T10:35:33;21.38;;;13.23;;
40729;SDS011;26418;50.070;8.436;2024-03-06T10:38:09;25.42;;;14.10;;
40729;SDS011;26418;50.070;8.436;2024-03-06T10:40:45;22.40;;;13.40;;
40729;SDS011;26418;50.070;8.436;2024-03-06T10:43:13;20.38;;;12.63;;
40729;SDS011;26418;50.070;8.436;2024-03-06T10:48:25;24.17;;;15.35;;
40729;SDS011;26418;50.070;8.436;2024-03-06T10:50:53;27.08;;;15.40;;
40729;SDS011;26418;50.070;8.436;2024-03-06T10:53:20;22.65;;;14.90;;
40729;SDS011;26418;50.070;8.436;2024-03-06T10:55:48;28.23;;;16.15;;
40729;SDS011;26418;50.070;8.436;2024-03-06T10:58:14;25.52;;;16.65;;
40729;SDS011;26418;50.070;8.436;2024-03-06T11:00:42;24.15;;;15.55;;
40729;SDS011;26418;50.070;8.436;2024-03-06T11:03:13;22.30;;;14.68;;
40729;SDS011;26418;50.070;8.436;2024-03-06T11:05:41;28.98;;;17.05;;
40729;SDS011;26418;50.070;8.436;2024-03-06T11:08:14;29.77;;;16.80;;
40729;SDS011;26418;50.070;8.436;2024-03-06T11:10:42;29.25;;;16.55;;
40729;SDS011;26418;50.070;8.436;2024-03-06T11:13:30;30.05;;;16.48;;
40729;SDS011;26418;50.070;8.436;2024-03-06T11:15:58;26.52;;;15.15;;
40729;SDS011;26418;50.070;8.436;2024-03-06T11:23:30;30.40;;;17.08;;
40729;SDS011;26418;50.070;8.436;2024-03-06T11:25:57;29.65;;;18.83;;
40729;SDS011;26418;50.070;8.436;2024-03-06T11:28:26;27.85;;;17.08;;
40729;SDS011;26418;50.070;8.436;2024-03-06T11:31:00;28.17;;;16.58;;
40729;SDS011;26418;50.070;8.436;2024-03-06T11:33:40;27.42;;;16.90;;
40729;SDS011;26418;50.070;8.436;2024-03-06T11:36:20;34.50;;;18.63;;
40729;SDS011;26418;50.070;8.436;2024-03-06T11:44:07;28.63;;;16.08;;
40729;SDS011;26418;50.070;8.436;2024-03-06T11:49:29;26.65;;;14.85;;
40729;SDS011;26418;50.070;8.436;2024-03-06T11:52:04;24.38;;;14.38;;
40729;SDS011;26418;50.070;8.436;2024-03-06T11:54:45;20.10;;;13.55;;
40729;SDS011;26418;50.070;8.436;2024-03-06T11:57:10;20.90;;;12.30;;
40729;SDS011;26418;50.070;8.436;2024-03-06T11:59:37;27.02;;;14.60;;
40729;SDS011;26418;50.070;8.436;2024-03-06T12:02:06;21.58;;;12.48;;
40729;SDS011;26418;50.070;8.436;2024-03-06T12:04:33;20.60;;;13.57;;
40729;SDS011;26418;50.070;8.436;2024-03-06T12:07:04;24.08;;;14.57;;
40729;SDS011;26418;50.070;8.436;2024-03-06T12:09:39;20.30;;;12.10;;
40729;SDS011;26418;50.070;8.436;2024-03-06T12:12:05;23.63;;;14.65;;
40729;SDS011;26418;50.070;8.436;2024-03-06T12:14:34;24.63;;;14.93;;
40729;SDS011;26418;50.070;8.436;2024-03-06T12:17:00;21.63;;;14.05;;
40729;SDS011;26418;50.070;8.436;2024-03-06T12:19:33;30.70;;;15.55;;
40729;SDS011;26418;50.070;8.436;2024-03-06T12:22:00;23.30;;;14.38;;
40729;SDS011;26418;50.070;8.436;2024-03-06T12:24:29;20.83;;;14.77;;
40729;SDS011;26418;50.070;8.436;2024-03-06T12:27:06;24.05;;;13.82;;
40729;SDS011;26418;50.070;8.436;2024-03-06T12:29:33;28.30;;;15.20;;
40729;SDS011;26418;50.070;8.436;2024-03-06T12:32:00;27.50;;;15.60;;
40729;SDS011;26418;50.070;8.436;2024-03-06T12:34:26;42.90;;;26.30;;
40729;SDS011;26418;50.070;8.436;2024-03-06T12:36:55;24.50;;;14.80;;
40729;SDS011;26418;50.070;8.436;2024-03-06T12:39:21;25.60;;;15.50;;
40729;SDS011;26418;50.070;8.436;2024-03-06T12:41:51;26.17;;;14.68;;
40729;SDS011;26418;50.070;8.436;2024-03-06T12:44:17;28.52;;;16.40;;
40729;SDS011;26418;50.070;8.436;2024-03-06T12:46:50;24.90;;;14.60;;
40729;SDS011;26418;50.070;8.436;2024-03-06T12:49:18;24.45;;;15.00;;
40729;SDS011;26418;50.070;8.436;2024-03-06T12:51:44;21.52;;;13.00;;
40729;SDS011;26418;50.070;8.436;2024-03-06T12:54:15;26.95;;;15.32;;
40729;SDS011;26418;50.070;8.436;2024-03-06T12:56:44;25.08;;;13.93;;
40729;SDS011;26418;50.070;8.436;2024-03-06T12:59:09;23.65;;;13.98;;
40729;SDS011;26418;50.070;8.436;2024-03-06T13:01:35;20.58;;;12.90;;
40729;SDS011;26418;50.070;8.436;2024-03-06T13:04:01;21.25;;;12.27;;
40729;SDS011;26418;50.070;8.436;2024-03-06T13:06:32;19.13;;;11.40;;
40729;SDS011;26418;50.070;8.436;2024-03-06T13:08:59;21.65;;;11.73;;
40729;SDS011;26418;50.070;8.436;2024-03-06T13:11:27;27.02;;;14.45;;
40729;SDS011;26418;50.070;8.436;2024-03-06T13:13:53;22.25;;;13.88;;
40729;SDS011;26418;50.070;8.436;2024-03-06T13:16:18;19.23;;;13.02;;
40729;SDS011;26418;50.070;8.436;2024-03-06T13:18:47;19.35;;;11.77;;
40729;SDS011;26418;50.070;8.436;2024-03-06T13:21:20;24.05;;;13.57;;
40729;SDS011;26418;50.070;8.436;2024-03-06T13:23:45;18.00;;;12.32;;
40729;SDS011;26418;50.070;8.436;2024-03-06T13:26:11;20.13;;;12.02;;
40729;SDS011;26418;50.070;8.436;2024-03-06T13:28:38;20.08;;;12.15;;
40729;SDS011;26418;50.070;8.436;2024-03-06T13:31:07;20.40;;;10.65;;
40729;SDS011;26418;50.070;8.436;2024-03-06T13:33:35;22.65;;;13.93;;
40729;SDS011;26418;50.070;8.436;2024-03-06T13:36:12;26.33;;;13.00;;
40729;SDS011;26418;50.070;8.436;2024-03-06T13:38:40;21.05;;;13.65;;
40729;SDS011;26418;50.070;8.436;2024-03-06T13:41:06;20.65;;;14.23;;
40729;SDS011;26418;50.070;8.436;2024-03-06T13:43:32;24.77;;;14.15;;
40729;SDS011;26418;50.070;8.436;2024-03-06T13:45:57;23.48;;;14.25;;
40729;SDS011;26418;50.070;8.436;2024-03-06T13:48:26;23.10;;;13.02;;
40729;SDS011;26418;50.070;8.436;2024-03-06T13:50:52;25.13;;;13.65;;
40729;SDS011;26418;50.070;8.436;2024-03-06T13:53:20;21.92;;;13.27;;
40729;SDS011;26418;50.070;8.436;2024-03-06T13:55:46;22.55;;;13.10;;
40729;SDS011;26418;50.070;8.436;2024-03-06T13:58:11;22.75;;;13.65;;
40729;SDS011;26418;50.070;8.436;2024-03-06T14:00:37;25.55;;;14.75;;
40729;SDS011;26418;50.070;8.436;2024-03-06T14:03:03;26.45;;;15.55;;
40729;SDS011;26418;50.070;8.436;2024-03-06T14:05:28;30.55;;;16.95;;
40729;SDS011;26418;50.070;8.436;2024-03-06T14:07:55;28.80;;;16.20;;
40729;SDS011;26418;50.070;8.436;2024-03-06T14:10:21;30.35;;;17.02;;
40729;SDS011;26418;50.070;8.436;2024-03-06T14:12:49;26.05;;;15.15;;
40729;SDS011;26418;50.070;8.436;2024-03-06T14:15:19;25.83;;;16.15;;
40729;SDS011;26418;50.070;8.436;2024-03-06T14:17:44;25.67;;;12.75;;
40729;SDS011;26418;50.070;8.436;2024-03-06T14:20:13;27.85;;;14.18;;
40729;SDS011;26418;50.070;8.436;2024-03-06T14:22:41;23.85;;;13.90;;
40729;SDS011;26418;50.070;8.436;2024-03-06T14:25:07;25.67;;;14.70;;
40729;SDS011;26418;50.070;8.436;2024-03-06T14:27:33;28.65;;;14.43;;
40729;SDS011;26418;50.070;8.436;2024-03-06T14:30:00;27.48;;;16.23;;
40729;SDS011;26418;50.070;8.436;2024-03-06T14:32:27;26.45;;;14.95;;
40729;SDS011;26418;50.070;8.436;2024-03-06T14:34:53;30.70;;;16.65;;
40729;SDS011;26418;50.070;8.436;2024-03-06T14:37:22;27.63;;;15.80;;
40729;SDS011;26418;50.070;8.436;2024-03-06T14:39:47;27.58;;;15.90;;
40729;SDS011;26418;50.070;8.436;2024-03-06T14:42:13;24.02;;;14.25;;
40729;SDS011;26418;50.070;8.436;2024-03-06T14:44:40;24.20;;;14.48;;
40729;SDS011;26418;50.070;8.436;2024-03-06T14:47:05;22.58;;;13.18;;
40729;SDS011;26418;50.070;8.436;2024-03-06T14:49:31;27.60;;;14.00;;
40729;SDS011;26418;50.070;8.436;2024-03-06T14:51:56;24.13;;;13.80;;
40729;SDS011;26418;50.070;8.436;2024-03-06T14:54:22;28.33;;;13.52;;
40729;SDS011;26418;50.070;8.436;2024-03-06T14:56:51;28.23;;;13.95;;
40729;SDS011;26418;50.070;8.436;2024-03-06T14:59:21;25.17;;;13.23;;
40729;SDS011;26418;50.070;8.436;2024-03-06T15:01:46;21.25;;;12.93;;
40729;SDS011;26418;50.070;8.436;2024-03-06T15:04:13;18.50;;;11.85;;
40729;SDS011;26418;50.070;8.436;2024-03-06T15:06:39;22.65;;;12.63;;
40729;SDS011;26418;50.070;8.436;2024-03-06T15:09:05;26.35;;;12.05;;